Date,TemperatureHighF,TemperatureAvgF,TemperatureLowF,DewpointHighF,DewpointAvgF,DewpointLowF,HumidityHigh,HumidityAvg,HumidityLow,PressureMaxIn,PressureMinIn,WindSpeedMaxMPH,WindSpeedAvgMPH,GustSpeedMaxMPH,PrecipitationSumIn
2013-6-1,95,79,66,74,68,62,89,70,50,30.08,29.89,4,0,5,0.02
2013-6-2,88,76,68,70,66,62,89,73,51,29.94,29.86,4,0,4,0.04
2013-6-3,73,66,55,63,58,48,88,77,62,30.10,29.92,0,0,2,0.00
2013-6-4,83,63,43,59,50,38,86,65,40,30.21,30.10,4,0,5,0.00
2013-6-5,94,70,50,71,58,46,87,67,45,30.18,29.98,4,0,4,0.00
2013-6-6,73,67,64,69,63,58,92,87,71,30.00,29.82,0,0,0,0.90
2013-6-7,69,65,61,65,62,57,94,89,82,29.90,29.79,3,0,3,0.00
2013-6-8,81,66,58,65,58,54,88,76,57,30.15,29.90,0,0,0,0.00
2013-6-9,92,73,58,72,63,53,91,72,48,30.20,30.05,3,0,3,0.00
2013-6-10,84,71,65,76,66,61,92,85,73,30.06,29.84,0,0,3,0.57
2013-6-11,83,71,65,71,65,62,91,83,61,29.94,29.84,5,0,6,0.08
2013-6-12,90,76,64,75,68,61,92,77,57,29.96,29.79,5,0,5,0.00
2013-6-13,75,69,62,69,64,57,93,85,77,29.82,29.57,6,0,6,0.63
2013-6-14,80,66,56,65,58,52,91,76,54,30.09,29.82,4,0,4,0.00
2013-6-15,88,70,54,64,58,50,92,69,41,30.16,30.04,4,0,4,0.00
2013-6-16,79,69,63,73,64,58,89,83,74,30.06,29.95,5,0,5,0.16
2013-6-17,91,76,65,73,67,62,92,75,49,30.02,29.94,0,0,2,0.00
2013-6-18,83,70,64,72,64,60,90,84,68,29.97,29.88,0,0,0,0.08
2013-6-19,86,69,59,62,58,51,89,69,40,30.17,29.97,4,0,5,0.00
2013-6-20,92,70,52,68,58,47,88,67,42,30.25,30.17,0,0,3,0.00
2013-6-21,96,74,56,71,61,51,88,68,41,30.28,30.17,0,0,0,0.00
2013-6-22,97,78,60,77,67,56,88,71,49,30.25,30.10,0,0,0,0.00
2013-6-23,95,80,66,77,69,62,89,72,50,30.19,30.08,0,0,0,0.00
2013-6-24,96,80,66,77,70,62,90,72,53,30.17,30.04,2,0,2,0.00
2013-6-25,97,79,67,77,69,63,90,72,50,30.09,29.93,4,0,5,0.19
2013-6-26,88,75,66,76,69,64,94,82,63,30.01,29.85,3,0,3,1.39
2013-6-27,79,72,68,74,68,65,94,88,78,29.85,29.69,0,0,4,0.51
2013-6-28,80,70,64,74,67,61,94,88,76,29.70,29.55,0,0,4,0.63
2013-6-29,87,71,62,72,66,60,94,83,58,29.72,29.59,2,0,4,0.12
2013-6-30,92,74,62,75,67,59,94,78,56,29.87,29.72,3,0,3,0.00